createdAt,value
2023-05-14T00:00:23.249Z,101734.62
2023-05-14T00:00:53.784Z,101735.12
2023-05-14T00:01:24.216Z,101735.30
2023-05-14T00:01:54.660Z,101739.67
2023-05-14T00:02:25.162Z,101737.68
2023-05-14T00:02:55.773Z,101736.98
2023-05-14T00:03:26.372Z,101735.14
2023-05-14T00:03:56.906Z,101734.62
2023-05-14T00:04:27.381Z,101736.75
2023-05-14T00:04:57.849Z,101737.73
2023-05-14T00:05:28.278Z,101739.25
2023-05-14T00:05:58.709Z,101737.09
2023-05-14T00:06:29.126Z,101734.09
2023-05-14T00:06:59.553Z,101735.29
2023-05-14T00:07:29.966Z,101736.80
2023-05-14T00:08:00.393Z,101734.64
2023-05-14T00:08:30.827Z,101735.79
2023-05-14T00:09:01.256Z,101730.21
2023-05-14T00:09:31.670Z,101731.98
2023-05-14T00:10:02.135Z,101731.22
2023-05-14T00:10:32.533Z,101733.54
2023-05-14T00:11:02.952Z,101732.61
2023-05-14T00:11:33.424Z,101731.95
2023-05-14T00:12:03.844Z,101731.45
2023-05-14T00:12:34.271Z,101728.45
2023-05-14T00:13:04.693Z,101731.84
2023-05-14T00:13:35.117Z,101729.29
2023-05-14T00:14:05.544Z,101730.93
2023-05-14T00:14:35.985Z,101726.77
2023-05-14T00:15:06.420Z,101727.26
2023-05-14T00:15:36.855Z,101728.39
2023-05-14T00:16:07.327Z,101729.56
2023-05-14T00:16:37.946Z,101725.87
2023-05-14T00:17:08.476Z,101726.53
2023-05-14T00:17:38.918Z,101722.99
2023-05-14T00:18:09.390Z,101723.64
2023-05-14T00:18:39.813Z,101724.62
2023-05-14T00:19:10.287Z,101723.30
2023-05-14T00:19:40.716Z,101723.14
2023-05-14T00:20:11.144Z,101722.84
2023-05-14T00:20:41.559Z,101723.34
2023-05-14T00:21:11.995Z,101722.53
2023-05-14T00:21:42.408Z,101724.02
2023-05-14T00:22:12.830Z,101726.88
2023-05-14T00:22:43.251Z,101728.12
2023-05-14T00:23:13.686Z,101725.59
2023-05-14T00:23:44.098Z,101727.09
2023-05-14T00:24:14.550Z,101725.35
2023-05-14T00:24:44.977Z,101726.37
2023-05-14T00:25:15.415Z,101726.07
2023-05-14T00:25:45.817Z,101720.84
2023-05-14T00:26:16.247Z,101725.96
2023-05-14T00:26:46.668Z,101723.77
2023-05-14T00:27:17.082Z,101723.77
2023-05-14T00:27:47.507Z,101722.25
2023-05-14T00:28:17.956Z,101721.19
2023-05-14T00:28:48.370Z,101722.25
2023-05-14T00:29:18.811Z,101721.70
2023-05-14T00:29:49.233Z,101724.56
2023-05-14T00:30:19.685Z,101723.05
2023-05-14T00:30:50.081Z,101720.88
2023-05-14T00:31:20.557Z,101719.55
2023-05-14T00:31:51.098Z,101716.12
2023-05-14T00:32:21.600Z,101721.05
2023-05-14T00:32:52.120Z,101719.19
2023-05-14T00:33:22.540Z,101716.12
2023-05-14T00:33:52.975Z,101715.47
2023-05-14T00:34:23.398Z,101715.48
2023-05-14T00:34:53.819Z,101719.50
2023-05-14T00:35:24.242Z,101715.95
2023-05-14T00:35:54.672Z,101715.09
2023-05-14T00:36:25.092Z,101714.75
2023-05-14T00:36:55.514Z,101715.78
2023-05-14T00:37:25.944Z,101714.59
2023-05-14T00:37:56.365Z,101714.43
2023-05-14T00:38:26.783Z,101713.41
2023-05-14T00:38:57.222Z,101712.11
2023-05-14T00:39:27.645Z,101710.80
2023-05-14T00:39:58.070Z,101714.16
2023-05-14T00:40:28.503Z,101712.86
2023-05-14T00:40:58.920Z,101712.44
2023-05-14T00:41:29.350Z,101715.15
2023-05-14T00:41:59.761Z,101712.61
2023-05-14T00:42:30.192Z,101711.09
2023-05-14T00:43:00.609Z,101712.23
2023-05-14T00:43:31.034Z,101711.80
2023-05-14T00:44:01.480Z,101711.48
2023-05-14T00:44:31.884Z,101710.62
2023-05-14T00:45:02.334Z,101710.91
2023-05-14T00:45:32.756Z,101709.25
2023-05-14T00:46:03.159Z,101707.86
2023-05-14T00:46:33.643Z,101709.73
2023-05-14T00:47:04.121Z,101710.75
2023-05-14T00:47:34.518Z,101708.72
2023-05-14T00:48:04.951Z,101705.66
2023-05-14T00:48:35.358Z,101703.69
2023-05-14T00:49:05.834Z,101708.38
2023-05-14T00:49:36.224Z,101703.23
2023-05-14T00:50:06.671Z,101705.78
2023-05-14T00:50:37.075Z,101706.95
2023-05-14T00:51:07.495Z,101703.41
2023-05-14T00:51:37.924Z,101703.41
2023-05-14T00:52:08.339Z,101705.59
2023-05-14T00:52:38.788Z,101701.87
2023-05-14T00:53:09.206Z,101706.39
2023-05-14T00:53:39.667Z,101705.38
2023-05-14T00:54:10.088Z,101705.19
2023-05-14T00:54:40.507Z,101704.55
2023-05-14T00:55:10.926Z,101704.69
2023-05-14T00:55:41.345Z,101705.53
2023-05-14T00:56:11.799Z,101702.15
2023-05-14T00:56:42.221Z,101704.87
2023-05-14T00:57:12.644Z,101702.89
2023-05-14T00:57:43.077Z,101705.41
2023-05-14T00:58:13.510Z,101706.73
2023-05-14T00:58:43.918Z,101706.28
2023-05-14T00:59:14.345Z,101705.35
2023-05-14T00:59:44.772Z,101705.44
2023-05-14T01:00:15.204Z,101707.33
2023-05-14T01:00:45.690Z,101703.44
2023-05-14T01:01:16.083Z,101705.65
2023-05-14T01:01:46.484Z,101707.48
2023-05-14T01:02:16.915Z,101706.99
2023-05-14T01:02:47.409Z,101708.35
2023-05-14T01:03:17.896Z,101704.97
2023-05-14T01:03:48.440Z,101706.15
2023-05-14T01:04:18.914Z,101707.17
2023-05-14T01:04:49.350Z,101704.62
2023-05-14T01:05:19.750Z,101701.91
2023-05-14T01:05:50.170Z,101706.61
2023-05-14T01:06:20.597Z,101703.59
2023-05-14T01:06:51.032Z,101704.27
2023-05-14T01:07:21.448Z,101704.92
2023-05-14T01:07:51.883Z,101700.02
2023-05-14T01:08:22.311Z,101702.77
2023-05-14T01:08:52.727Z,101703.16
2023-05-14T01:09:23.148Z,101702.13
2023-05-14T01:09:53.585Z,101700.78
2023-05-14T01:10:24.393Z,101700.78
2023-05-14T01:10:54.977Z,101700.97
2023-05-14T01:11:25.401Z,101701.95
2023-05-14T01:11:55.816Z,101700.31
2023-05-14T01:12:26.250Z,101703.02
2023-05-14T01:12:56.685Z,101701.20
2023-05-14T01:13:27.117Z,101702.20
2023-05-14T01:13:57.541Z,101701.66
2023-05-14T01:14:27.949Z,101701.13
2023-05-14T01:14:58.376Z,101700.78
2023-05-14T01:15:28.806Z,101700.78
2023-05-14T01:15:59.275Z,101702.39
2023-05-14T01:16:29.697Z,101700.91
2023-05-14T01:17:00.144Z,101699.77
2023-05-14T01:17:30.627Z,101703.51
2023-05-14T01:18:01.058Z,101700.83
2023-05-14T01:18:31.471Z,101699.62
2023-05-14T01:19:01.884Z,101702.48
2023-05-14T01:19:32.275Z,101703.66
2023-05-14T01:20:02.703Z,101701.41
2023-05-14T01:20:33.131Z,101699.77
2023-05-14T01:21:03.552Z,101704.48
2023-05-14T01:21:34.031Z,101702.12
2023-05-14T01:22:04.449Z,101701.58
2023-05-14T01:22:34.879Z,101703.83
2023-05-14T01:23:05.301Z,101704.74
2023-05-14T01:23:35.725Z,101704.37
2023-05-14T01:24:06.151Z,101703.84
2023-05-14T01:24:36.585Z,101704.54
2023-05-14T01:25:07.023Z,101706.81
2023-05-14T01:25:37.429Z,101702.10
2023-05-14T01:26:07.845Z,101703.88
2023-05-14T01:26:38.289Z,101705.72
2023-05-14T01:27:08.705Z,101702.57
2023-05-14T01:27:39.129Z,101700.95
2023-05-14T01:28:09.553Z,101700.64
2023-05-14T01:28:40.017Z,101705.14
2023-05-14T01:29:10.425Z,101701.09
2023-05-14T01:29:40.847Z,101703.72
2023-05-14T01:30:11.278Z,101703.20
2023-05-14T01:30:41.705Z,101704.54
2023-05-14T01:31:12.160Z,101703.76
2023-05-14T01:31:42.608Z,101701.22
2023-05-14T01:32:13.037Z,101701.84
2023-05-14T01:32:43.490Z,101701.88
2023-05-14T01:33:13.884Z,101701.59
2023-05-14T01:33:44.303Z,101703.44
2023-05-14T01:34:14.726Z,101697.02
2023-05-14T01:34:45.151Z,101697.44
2023-05-14T01:35:15.577Z,101698.95
2023-05-14T01:35:46.001Z,101696.26
2023-05-14T01:36:16.420Z,101698.08
2023-05-14T01:36:46.868Z,101693.89
2023-05-14T01:37:17.286Z,101695.59
2023-05-14T01:37:47.699Z,101692.75
2023-05-14T01:38:18.119Z,101693.97
2023-05-14T01:38:48.545Z,101695.67
2023-05-14T01:39:18.968Z,101694.97
2023-05-14T01:39:49.392Z,101690.07
2023-05-14T01:40:19.860Z,101687.61
2023-05-14T01:40:50.278Z,101689.64
2023-05-14T01:41:20.727Z,101688.62
2023-05-14T01:41:51.160Z,101691.84
2023-05-14T01:42:21.583Z,101686.48
2023-05-14T01:42:52.054Z,101689.27
2023-05-14T01:43:22.482Z,101689.98
2023-05-14T01:43:52.881Z,101691.38
2023-05-14T01:44:23.305Z,101687.70
2023-05-14T01:44:53.717Z,101688.89
2023-05-14T01:45:24.144Z,101684.47
2023-05-14T01:45:54.658Z,101683.58
2023-05-14T01:46:25.160Z,101689.16
2023-05-14T01:46:55.603Z,101685.47
2023-05-14T01:47:26.051Z,101682.63
2023-05-14T01:47:56.515Z,101685.33
2023-05-14T01:48:26.906Z,101685.67
2023-05-14T01:48:57.328Z,101682.28
2023-05-14T01:49:27.759Z,101684.12
2023-05-14T01:49:58.172Z,101684.83
2023-05-14T01:50:28.598Z,101682.62
2023-05-14T01:50:59.020Z,101681.63
2023-05-14T01:51:29.468Z,101683.66
2023-05-14T01:51:59.881Z,101683.12
2023-05-14T01:52:30.315Z,101678.91
2023-05-14T01:53:00.731Z,101682.25
2023-05-14T01:53:31.151Z,101679.70
2023-05-14T01:54:01.575Z,101677.56
2023-05-14T01:54:31.998Z,101677.75
2023-05-14T01:55:02.419Z,101682.63
2023-05-14T01:55:32.846Z,101681.65
2023-05-14T01:56:03.294Z,101679.48
2023-05-14T01:56:33.710Z,101678.44
2023-05-14T01:57:04.136Z,101679.12
2023-05-14T01:57:34.552Z,101678.76
2023-05-14T01:58:04.971Z,101680.63
2023-05-14T01:58:35.396Z,101681.45
2023-05-14T01:59:05.818Z,101680.55
2023-05-14T01:59:36.241Z,101677.34
2023-05-14T02:00:06.686Z,101677.23
2023-05-14T02:00:37.117Z,101678.77
2023-05-14T02:01:07.576Z,101678.62
2023-05-14T02:01:38.171Z,101675.06
2023-05-14T02:02:08.586Z,101679.24
2023-05-14T02:02:39.054Z,101676.37
2023-05-14T02:03:09.511Z,101675.52
2023-05-14T02:03:39.939Z,101681.84
2023-05-14T02:04:10.380Z,101679.52
2023-05-14T02:04:40.773Z,101675.30
2023-05-14T02:05:11.199Z,101677.56
2023-05-14T02:05:41.642Z,101680.27
2023-05-14T02:06:12.065Z,101677.56
2023-05-14T02:06:42.491Z,101677.69
2023-05-14T02:07:12.929Z,101677.52
2023-05-14T02:07:43.348Z,101678.67
2023-05-14T02:08:13.771Z,101673.98
2023-05-14T02:08:44.209Z,101676.38
2023-05-14T02:09:14.627Z,101678.34
2023-05-14T02:09:45.054Z,101674.64
2023-05-14T02:10:15.582Z,101676.67
2023-05-14T02:10:45.978Z,101673.50
2023-05-14T02:11:16.420Z,101675.64
2023-05-14T02:11:46.838Z,101675.16
2023-05-14T02:12:17.267Z,101676.98
2023-05-14T02:12:47.684Z,101678.91
2023-05-14T02:13:18.107Z,101677.41
2023-05-14T02:13:48.531Z,101679.24
2023-05-14T02:14:18.966Z,101677.07
2023-05-14T02:14:49.388Z,101675.09
2023-05-14T02:15:19.821Z,101676.62
2023-05-14T02:15:50.296Z,101676.32
2023-05-14T02:16:20.755Z,101675.42
2023-05-14T02:16:51.213Z,101678.96
2023-05-14T02:17:21.589Z,101680.03
2023-05-14T02:17:52.037Z,101679.87
2023-05-14T02:18:22.434Z,101682.52
2023-05-14T02:18:52.909Z,101676.60
2023-05-14T02:19:23.309Z,101674.06
2023-05-14T02:19:53.764Z,101676.09
2023-05-14T02:20:24.605Z,101678.28
2023-05-14T02:20:55.163Z,101669.55
2023-05-14T02:21:25.567Z,101673.89
2023-05-14T02:21:55.986Z,101676.47
2023-05-14T02:22:26.415Z,101673.45
2023-05-14T02:22:56.851Z,101677.64
2023-05-14T02:23:37.897Z,101674.44
2023-05-14T02:24:02.588Z,101675.62
2023-05-14T02:24:33.028Z,101676.72
2023-05-14T02:25:03.459Z,101673.02
2023-05-14T02:25:33.867Z,101672.86
2023-05-14T02:26:04.297Z,101671.25
2023-05-14T02:26:34.718Z,101670.44
2023-05-14T02:27:05.134Z,101670.94
2023-05-14T02:27:35.569Z,101670.28
2023-05-14T02:28:05.992Z,101672.07
2023-05-14T02:28:36.423Z,101672.19
2023-05-14T02:29:06.843Z,101674.21
2023-05-14T02:29:37.267Z,101674.41
2023-05-14T02:30:07.693Z,101675.20
2023-05-14T02:30:38.117Z,101675.25
2023-05-14T02:31:08.574Z,101671.86
2023-05-14T02:31:39.007Z,101668.31
2023-05-14T02:32:09.458Z,101672.42
2023-05-14T02:32:39.924Z,101670.23
2023-05-14T02:33:10.513Z,101671.95
2023-05-14T02:33:40.977Z,101671.05
2023-05-14T02:34:11.362Z,101672.29
2023-05-14T02:34:41.801Z,101673.77
2023-05-14T02:35:12.250Z,101671.38
2023-05-14T02:35:42.661Z,101669.70
2023-05-14T02:36:13.083Z,101672.41
2023-05-14T02:36:43.507Z,101669.53
2023-05-14T02:37:13.933Z,101671.09
2023-05-14T02:37:44.357Z,101669.41
2023-05-14T02:38:14.777Z,101673.43
2023-05-14T02:38:45.197Z,101670.43
2023-05-14T02:39:15.654Z,101669.95
2023-05-14T02:39:46.062Z,101672.52
2023-05-14T02:40:16.485Z,101671.16
2023-05-14T02:40:46.909Z,101670.11
2023-05-14T02:41:17.330Z,101671.12
2023-05-14T02:41:47.770Z,101670.45
2023-05-14T02:42:18.174Z,101670.97
2023-05-14T02:42:48.598Z,101669.13
2023-05-14T02:43:19.024Z,101673.84
2023-05-14T02:43:49.452Z,101667.11
2023-05-14T02:44:19.878Z,101671.62
2023-05-14T02:44:50.300Z,101670.25
2023-05-14T02:45:20.719Z,101672.94
2023-05-14T02:45:51.151Z,101674.30
2023-05-14T02:46:21.656Z,101671.42
2023-05-14T02:46:52.093Z,101668.77
2023-05-14T02:47:22.536Z,101669.84
2023-05-14T02:47:52.969Z,101669.50
2023-05-14T02:48:23.357Z,101669.31
2023-05-14T02:48:53.787Z,101671.70
2023-05-14T02:49:24.220Z,101668.28
2023-05-14T02:49:54.651Z,101669.02
2023-05-14T02:50:25.397Z,101669.34
2023-05-14T02:50:56.090Z,101668.68
2023-05-14T02:51:26.512Z,101670.28
2023-05-14T02:51:56.932Z,101668.05
2023-05-14T02:52:27.366Z,101668.72
2023-05-14T02:52:57.782Z,101669.72
2023-05-14T02:53:28.220Z,101672.55
2023-05-14T02:53:58.651Z,101670.39
2023-05-14T02:54:29.089Z,101671.78
2023-05-14T02:54:59.510Z,101666.70
2023-05-14T02:55:29.935Z,101666.43
2023-05-14T02:56:00.362Z,101668.88
2023-05-14T02:56:30.775Z,101666.55
2023-05-14T02:57:01.214Z,101668.56
2023-05-14T02:57:31.655Z,101664.02
2023-05-14T02:58:02.071Z,101666.77
2023-05-14T02:58:32.512Z,101667.25
2023-05-14T02:59:02.940Z,101663.58
2023-05-14T02:59:33.692Z,101666.27
2023-05-14T03:00:04.452Z,101664.82
2023-05-14T03:00:35.382Z,101667.89
2023-05-14T03:01:06.283Z,101665.20
2023-05-14T03:01:37.148Z,101666.55
2023-05-14T03:02:07.989Z,101668.70
2023-05-14T03:02:38.928Z,101664.91
2023-05-14T03:03:09.776Z,101665.41
2023-05-14T03:03:40.709Z,101667.44
2023-05-14T03:04:11.442Z,101666.09
2023-05-14T03:04:41.884Z,101666.53
2023-05-14T03:05:12.293Z,101668.03
2023-05-14T03:05:42.710Z,101671.07
2023-05-14T03:06:13.135Z,101669.41
2023-05-14T03:06:43.555Z,101669.38
2023-05-14T03:07:13.990Z,101669.99
2023-05-14T03:07:44.420Z,101670.84
2023-05-14T03:08:14.860Z,101671.91
2023-05-14T03:08:45.292Z,101672.59
2023-05-14T03:09:15.720Z,101674.12
2023-05-14T03:09:46.133Z,101674.77
2023-05-14T03:10:16.574Z,101672.45
2023-05-14T03:10:46.992Z,101671.63
2023-05-14T03:11:17.419Z,101672.14
2023-05-14T03:11:47.841Z,101672.95
2023-05-14T03:12:18.267Z,101670.61
2023-05-14T03:12:48.701Z,101671.27
2023-05-14T03:13:19.129Z,101670.09
2023-05-14T03:13:49.563Z,101672.78
2023-05-14T03:14:19.992Z,101669.55
2023-05-14T03:14:50.412Z,101669.55
2023-05-14T03:15:20.842Z,101667.53
2023-05-14T03:15:51.259Z,101668.83
2023-05-14T03:16:21.690Z,101669.72
2023-05-14T03:16:52.171Z,101667.98
2023-05-14T03:17:22.568Z,101669.86
2023-05-14T03:17:53.051Z,101669.70
2023-05-14T03:18:23.412Z,101666.86
2023-05-14T03:18:53.859Z,101669.07
2023-05-14T03:19:24.263Z,101668.09
2023-05-14T03:19:54.683Z,101665.91
2023-05-14T03:20:25.303Z,101665.45
2023-05-14T03:20:55.847Z,101667.50
2023-05-14T03:21:26.271Z,101668.64
2023-05-14T03:21:56.693Z,101668.97
2023-05-14T03:22:27.131Z,101670.31
2023-05-14T03:22:57.555Z,101667.98
2023-05-14T03:23:27.978Z,101667.82
2023-05-14T03:23:58.404Z,101666.97
2023-05-14T03:24:28.835Z,101670.63
2023-05-14T03:24:59.245Z,101672.70
2023-05-14T03:25:29.674Z,101672.67
2023-05-14T03:26:00.115Z,101671.33
2023-05-14T03:26:30.514Z,101672.87
2023-05-14T03:27:00.937Z,101667.67
2023-05-14T03:27:31.376Z,101670.38
2023-05-14T03:28:01.796Z,101669.18
2023-05-14T03:28:32.244Z,101672.78
2023-05-14T03:29:02.647Z,101671.55
2023-05-14T03:29:33.060Z,101672.05
2023-05-14T03:30:03.495Z,101670.48
2023-05-14T03:30:33.946Z,101669.47
2023-05-14T03:31:04.398Z,101667.78
2023-05-14T03:31:34.781Z,101670.55
2023-05-14T03:32:05.214Z,101669.50
2023-05-14T03:32:35.679Z,101668.16
2023-05-14T03:33:06.256Z,101664.62
2023-05-14T03:33:36.672Z,101662.60
2023-05-14T03:34:07.107Z,101662.84
2023-05-14T03:34:37.545Z,101661.11
2023-05-14T03:35:07.967Z,101659.33
2023-05-14T03:35:38.383Z,101663.56
2023-05-14T03:36:08.804Z,101664.70
2023-05-14T03:36:39.228Z,101663.36
2023-05-14T03:37:09.675Z,101660.30
2023-05-14T03:37:40.103Z,101663.67
2023-05-14T03:38:10.520Z,101663.66
2023-05-14T03:38:40.942Z,101662.08
2023-05-14T03:39:11.376Z,101666.94
2023-05-14T03:39:41.790Z,101668.59
2023-05-14T03:40:12.211Z,101662.98
2023-05-14T03:40:42.632Z,101665.84
2023-05-14T03:41:13.056Z,101666.05
2023-05-14T03:41:43.485Z,101665.92
2023-05-14T03:42:13.929Z,101663.56
2023-05-14T03:42:44.352Z,101664.23
2023-05-14T03:43:14.791Z,101661.21
2023-05-14T03:43:45.200Z,101665.62
2023-05-14T03:44:15.618Z,101660.90
2023-05-14T03:44:46.044Z,101661.91
2023-05-14T03:45:16.481Z,101661.58
2023-05-14T03:45:46.939Z,101659.39
2023-05-14T03:46:17.360Z,101654.86
2023-05-14T03:46:47.815Z,101659.42
2023-05-14T03:47:18.228Z,101658.43
2023-05-14T03:47:48.716Z,101657.06
2023-05-14T03:48:19.183Z,101655.38
2023-05-14T03:48:49.637Z,101656.22
2023-05-14T03:49:20.025Z,101656.53
2023-05-14T03:49:50.449Z,101656.22
2023-05-14T03:50:20.927Z,101655.53
2023-05-14T03:50:51.332Z,101656.72
2023-05-14T03:51:21.766Z,101658.71
2023-05-14T03:51:52.205Z,101656.33
2023-05-14T03:52:22.624Z,101656.34
2023-05-14T03:52:53.034Z,101658.19
2023-05-14T03:53:23.469Z,101657.17
2023-05-14T03:53:53.882Z,101655.52
2023-05-14T03:54:24.301Z,101659.56
2023-05-14T03:54:54.723Z,101656.85
2023-05-14T03:55:25.150Z,101659.75
2023-05-14T03:55:55.599Z,101658.24
2023-05-14T03:56:26.012Z,101657.19
2023-05-14T03:56:56.450Z,101659.83
2023-05-14T03:57:26.888Z,101656.17
2023-05-14T03:57:57.303Z,101654.40
2023-05-14T03:58:27.721Z,101654.79
2023-05-14T03:58:58.140Z,101651.69
2023-05-14T03:59:28.557Z,101655.34
2023-05-14T03:59:58.991Z,101652.79
2023-05-14T04:00:29.412Z,101656.22
2023-05-14T04:00:59.862Z,101651.86
2023-05-14T04:01:30.297Z,101654.86
2023-05-14T04:02:00.719Z,101650.77
2023-05-14T04:02:31.233Z,101647.86
2023-05-14T04:03:01.759Z,101650.38
2023-05-14T04:03:32.467Z,101652.08
2023-05-14T04:04:03.188Z,101651.28
2023-05-14T04:04:33.622Z,101652.00
2023-05-14T04:05:04.028Z,101653.49
2023-05-14T04:05:34.458Z,101651.16
2023-05-14T04:06:04.897Z,101650.46
2023-05-14T04:06:35.320Z,101651.33
2023-05-14T04:07:05.746Z,101652.19
2023-05-14T04:07:36.163Z,101648.62
2023-05-14T04:08:06.591Z,101650.84
2023-05-14T04:08:37.038Z,101650.55
2023-05-14T04:09:07.459Z,101651.24
2023-05-14T04:09:37.900Z,101649.23
2023-05-14T04:10:08.300Z,101652.09
2023-05-14T04:10:38.736Z,101651.86
2023-05-14T04:11:09.161Z,101653.59
2023-05-14T04:11:39.588Z,101654.56
2023-05-14T04:12:10.008Z,101650.84
2023-05-14T04:12:40.442Z,101651.10
2023-05-14T04:13:10.885Z,101655.81
2023-05-14T04:13:41.311Z,101653.30
2023-05-14T04:14:11.718Z,101651.66
2023-05-14T04:14:42.142Z,101652.85
2023-05-14T04:15:12.567Z,101650.31
2023-05-14T04:15:43.001Z,101648.14
2023-05-14T04:16:13.501Z,101648.78
2023-05-14T04:16:43.949Z,101648.91
2023-05-14T04:17:14.393Z,101649.29
2023-05-14T04:17:44.833Z,101651.31
2023-05-14T04:18:15.269Z,101650.54
2023-05-14T04:18:45.738Z,101653.06
2023-05-14T04:19:16.218Z,101651.01
2023-05-14T04:19:46.737Z,101649.67
2023-05-14T04:20:17.177Z,101649.70
2023-05-14T04:20:47.605Z,101651.38
2023-05-14T04:21:18.022Z,101648.03
2023-05-14T04:21:48.450Z,101651.89
2023-05-14T04:22:18.874Z,101649.23
2023-05-14T04:22:49.296Z,101646.91
2023-05-14T04:23:19.726Z,101651.12
2023-05-14T04:23:50.142Z,101649.62
2023-05-14T04:24:20.565Z,101648.44
2023-05-14T04:24:50.993Z,101651.23
2023-05-14T04:25:21.425Z,101647.12
2023-05-14T04:25:51.848Z,101649.61
2023-05-14T04:26:22.276Z,101647.28
2023-05-14T04:26:52.713Z,101650.29
2023-05-14T04:27:23.140Z,101646.56
2023-05-14T04:27:53.559Z,101648.38
2023-05-14T04:28:23.974Z,101648.72
2023-05-14T04:28:54.411Z,101644.70
2023-05-14T04:29:24.832Z,101646.73
2023-05-14T04:29:55.269Z,101648.66
2023-05-14T04:30:25.784Z,101647.66
2023-05-14T04:30:56.273Z,101648.30
2023-05-14T04:31:26.713Z,101647.38
2023-05-14T04:31:57.166Z,101646.61
2023-05-14T04:32:27.599Z,101647.61
2023-05-14T04:32:58.047Z,101646.79
2023-05-14T04:33:28.433Z,101642.56
2023-05-14T04:33:58.943Z,101646.06
2023-05-14T04:34:29.328Z,101644.23
2023-05-14T04:34:59.771Z,101645.09
2023-05-14T04:35:30.186Z,101643.52
2023-05-14T04:36:00.606Z,101641.28
2023-05-14T04:36:31.025Z,101642.70
2023-05-14T04:37:01.448Z,101640.84
2023-05-14T04:37:31.877Z,101641.33
2023-05-14T04:38:02.315Z,101640.67
2023-05-14T04:38:32.723Z,101643.37
2023-05-14T04:39:03.142Z,101641.88
2023-05-14T04:39:33.573Z,101641.56
2023-05-14T04:40:03.995Z,101643.80
2023-05-14T04:40:34.418Z,101644.00
2023-05-14T04:41:04.848Z,101643.69
2023-05-14T04:41:35.273Z,101642.19
2023-05-14T04:42:05.693Z,101643.20
2023-05-14T04:42:36.132Z,101643.00
2023-05-14T04:43:06.548Z,101637.58
2023-05-14T04:43:36.973Z,101636.45
2023-05-14T04:44:07.401Z,101639.44
2023-05-14T04:44:37.838Z,101641.97
2023-05-14T04:45:08.260Z,101642.47
2023-05-14T04:45:38.711Z,101640.67
2023-05-14T04:46:09.175Z,101640.46
2023-05-14T04:46:39.588Z,101641.62
2023-05-14T04:47:09.968Z,101643.11
2023-05-14T04:47:40.449Z,101641.76
2023-05-14T04:48:10.906Z,101640.11
2023-05-14T04:48:41.302Z,101641.09
2023-05-14T04:49:11.757Z,101641.30
2023-05-14T04:49:42.165Z,101641.96
2023-05-14T04:50:12.589Z,101641.08
2023-05-14T04:50:43.008Z,101641.89
2023-05-14T04:51:13.429Z,101640.31
2023-05-14T04:51:43.863Z,101640.99
2023-05-14T04:52:14.288Z,101642.90
2023-05-14T04:52:44.702Z,101639.92
2023-05-14T04:53:15.130Z,101638.55
2023-05-14T04:53:45.559Z,101638.73
2023-05-14T04:54:16.057Z,101642.43
2023-05-14T04:54:46.550Z,101641.20
2023-05-14T04:55:16.950Z,101643.85
2023-05-14T04:55:47.391Z,101640.60
2023-05-14T04:56:17.802Z,101637.34
2023-05-14T04:56:48.238Z,101640.19
2023-05-14T04:57:18.654Z,101643.01
2023-05-14T04:57:49.082Z,101642.62
2023-05-14T04:58:19.503Z,101637.94
2023-05-14T04:58:49.937Z,101642.86
2023-05-14T04:59:20.367Z,101641.61
2023-05-14T04:59:50.813Z,101640.23
2023-05-14T05:00:21.409Z,101640.72
2023-05-14T05:00:52.056Z,101633.95
2023-05-14T05:01:22.528Z,101635.25
2023-05-14T05:01:52.936Z,101640.67
2023-05-14T05:02:23.412Z,101632.11
2023-05-14T05:02:53.800Z,101639.38
2023-05-14T05:03:24.333Z,101635.16
2023-05-14T05:03:54.812Z,101627.70
2023-05-14T05:04:25.252Z,101633.56
2023-05-14T05:04:55.664Z,101629.25
2023-05-14T05:05:26.085Z,101625.22
2023-05-14T05:05:56.508Z,101626.74
2023-05-14T05:06:26.929Z,101630.44
2023-05-14T05:06:57.356Z,101625.94
2023-05-14T05:07:27.779Z,101635.41
2023-05-14T05:07:58.219Z,101629.34
2023-05-14T05:08:28.638Z,101629.34
2023-05-14T05:09:00.613Z,101626.45
2023-05-14T05:09:32.410Z,101624.27
2023-05-14T05:10:02.860Z,101623.56
2023-05-14T05:10:33.283Z,101626.01
2023-05-14T05:11:03.694Z,101626.88
2023-05-14T05:11:34.121Z,101626.34
2023-05-14T05:12:04.550Z,101622.48
2023-05-14T05:12:34.967Z,101626.02
2023-05-14T05:13:05.398Z,101624.35
2023-05-14T05:13:35.840Z,101622.31
2023-05-14T05:14:06.267Z,101623.48
2023-05-14T05:14:36.688Z,101624.69
2023-05-14T05:15:07.115Z,101622.80
2023-05-14T05:15:37.585Z,101619.97
2023-05-14T05:16:08.027Z,101622.45
2023-05-14T05:16:38.441Z,101623.83
2023-05-14T05:17:08.864Z,101622.52
2023-05-14T05:17:39.306Z,101622.13
2023-05-14T05:18:09.759Z,101622.11
2023-05-14T05:18:40.293Z,101621.92
2023-05-14T05:19:10.871Z,101619.55
2023-05-14T05:19:44.212Z,101621.91
2023-05-14T05:20:15.060Z,101621.41
2023-05-14T05:20:45.478Z,101618.22
2023-05-14T05:21:15.903Z,101621.27
2023-05-14T05:21:46.326Z,101623.30
2023-05-14T05:22:16.750Z,101620.29
2023-05-14T05:22:47.186Z,101621.01
2023-05-14T05:23:17.632Z,101619.34
2023-05-14T05:23:48.040Z,101620.20
2023-05-14T05:24:18.463Z,101620.16
2023-05-14T05:24:50.093Z,101622.04
2023-05-14T05:25:20.579Z,101622.36
2023-05-14T05:25:50.996Z,101624.23
2023-05-14T05:26:21.432Z,101620.53
2023-05-14T05:26:51.855Z,101623.88
2023-05-14T05:27:22.281Z,101622.69
2023-05-14T05:27:52.720Z,101620.11
2023-05-14T05:28:23.145Z,101619.25
2023-05-14T05:28:53.576Z,101619.41
2023-05-14T05:29:24.010Z,101622.83
2023-05-14T05:29:54.432Z,101618.57
2023-05-14T05:30:25.166Z,101619.52
2023-05-14T05:30:55.858Z,101623.47
2023-05-14T05:31:26.309Z,101625.33
2023-05-14T05:31:56.728Z,101623.34
2023-05-14T05:32:27.178Z,101628.25
2023-05-14T05:32:57.686Z,101622.80
2023-05-14T05:33:28.194Z,101624.67
2023-05-14T05:33:58.613Z,101625.52
2023-05-14T05:34:29.036Z,101618.76
2023-05-14T05:34:59.504Z,101620.03
2023-05-14T05:35:29.885Z,101623.39
2023-05-14T05:36:00.315Z,101622.88
2023-05-14T05:36:30.730Z,101622.31
2023-05-14T05:37:01.151Z,101625.44
2023-05-14T05:37:31.584Z,101625.14
2023-05-14T05:38:02.064Z,101621.64
2023-05-14T05:38:32.460Z,101621.13
2023-05-14T05:39:02.874Z,101625.05
2023-05-14T05:39:33.300Z,101624.38
2023-05-14T05:40:03.744Z,101626.75
2023-05-14T05:40:34.151Z,101625.38
2023-05-14T05:41:04.592Z,101623.88
2023-05-14T05:41:35.033Z,101625.34
2023-05-14T05:42:05.469Z,101623.92
2023-05-14T05:42:35.882Z,101625.78
2023-05-14T05:43:06.318Z,101623.77
2023-05-14T05:43:36.741Z,101623.77
2023-05-14T05:44:07.167Z,101621.85
2023-05-14T05:44:37.590Z,101622.06
2023-05-14T05:45:08.030Z,101621.85
2023-05-14T05:45:38.442Z,101626.66
2023-05-14T05:46:08.880Z,101621.23
2023-05-14T05:46:39.364Z,101624.13
2023-05-14T05:47:09.778Z,101623.12
2023-05-14T05:47:40.243Z,101624.91